createdAt,value
2017-12-06T00:00:08.998Z,8.15
2017-12-06T00:01:09.520Z,8.26
2017-12-06T00:02:09.564Z,8.22
2017-12-06T00:03:09.565Z,8.22
2017-12-06T00:04:09.063Z,8.08
2017-12-06T00:05:09.589Z,8.15
2017-12-06T00:06:09.372Z,8.15
2017-12-06T00:07:09.365Z,8.15
2017-12-06T00:09:09.676Z,8.11
2017-12-06T00:10:09.663Z,8.15
2017-12-06T00:11:09.458Z,8.19
2017-12-06T00:12:09.219Z,8.23
2017-12-06T00:13:09.479Z,8.2
2017-12-06T00:14:09.735Z,8.19
2017-12-06T00:15:09.776Z,8.25
2017-12-06T00:16:09.812Z,8.15
2017-12-06T00:17:09.804Z,8.07
2017-12-06T00:18:09.822Z,8.15
2017-12-06T00:19:09.832Z,8.16
2017-12-06T00:20:09.838Z,8.26
2017-12-06T00:21:09.987Z,8.23
2017-12-06T00:23:24.575Z,8.23
2017-12-06T00:24:09.929Z,8.23
2017-12-06T00:25:09.976Z,8.45
2017-12-06T00:26:09.756Z,8.34
2017-12-06T00:27:09.990Z,8.33
2017-12-06T00:28:09.990Z,8.25
2017-12-06T00:29:10.028Z,8.22
2017-12-06T00:30:10.037Z,8.2
2017-12-06T00:31:10.044Z,8.29
2017-12-06T00:32:10.051Z,8.26
2017-12-06T00:33:24.762Z,8.44
2017-12-06T00:34:09.868Z,8.37
2017-12-06T00:36:10.142Z,8.33
2017-12-06T00:37:10.148Z,8.4
2017-12-06T00:38:10.172Z,8.33
2017-12-06T00:40:10.221Z,8.36
2017-12-06T00:41:10.254Z,8.34
2017-12-06T00:42:10.276Z,8.36
2017-12-06T00:43:10.004Z,8.41
2017-12-06T00:44:10.301Z,8.36
2017-12-06T00:45:10.331Z,8.44
2017-12-06T00:46:10.369Z,8.4
2017-12-06T00:47:24.998Z,8.4
2017-12-06T00:48:10.351Z,8.34
2017-12-06T00:49:10.379Z,8.36
2017-12-06T00:50:10.145Z,8.36
2017-12-06T00:51:10.412Z,8.41
2017-12-06T00:52:10.434Z,8.4
2017-12-06T00:53:10.466Z,8.36
2017-12-06T00:54:10.225Z,8.3
2017-12-06T00:56:10.505Z,8.3
2017-12-06T00:57:10.502Z,8.37
2017-12-06T00:58:10.516Z,8.3
2017-12-06T00:59:10.552Z,8.44
2017-12-06T01:00:10.562Z,8.37
2017-12-06T01:01:10.332Z,8.37
2017-12-06T01:03:10.627Z,8.41
2017-12-06T01:04:10.657Z,8.36
2017-12-06T01:05:10.656Z,8.45
2017-12-06T01:06:10.669Z,8.45
2017-12-06T01:07:10.688Z,8.44
2017-12-06T01:08:10.734Z,8.43
2017-12-06T01:09:10.726Z,8.4
2017-12-06T01:10:10.753Z,8.4
2017-12-06T01:11:25.422Z,8.34
2017-12-06T01:12:10.538Z,8.36
2017-12-06T01:13:10.796Z,8.3
2017-12-06T01:14:10.825Z,8.41
2017-12-06T01:15:10.812Z,8.47
2017-12-06T01:16:10.876Z,8.36
2017-12-06T01:17:25.540Z,8.43
2017-12-06T01:18:10.872Z,8.44
2017-12-06T01:19:10.914Z,8.38
2017-12-06T01:20:10.941Z,8.41
2017-12-06T01:21:10.948Z,8.37
2017-12-06T01:22:11.053Z,8.44
2017-12-06T01:23:10.955Z,8.45
2017-12-06T01:24:11.009Z,8.44
2017-12-06T01:25:10.780Z,8.45
2017-12-06T01:27:25.719Z,8.4
2017-12-06T01:28:10.797Z,8.5
2017-12-06T01:29:11.083Z,8.52
2017-12-06T01:30:11.088Z,8.38
2017-12-06T01:31:11.105Z,8.43
2017-12-06T01:32:11.234Z,8.47
2017-12-06T01:33:11.153Z,8.37
2017-12-06T01:34:11.158Z,8.33
2017-12-06T01:35:25.856Z,8.38
2017-12-06T01:36:10.969Z,8.38
2017-12-06T01:37:11.225Z,8.41
2017-12-06T01:38:11.241Z,8.38
2017-12-06T01:39:11.257Z,8.45
2017-12-06T01:40:11.266Z,8.37
2017-12-06T01:41:11.356Z,8.43
2017-12-06T01:42:11.318Z,8.38
2017-12-06T01:43:25.992Z,8.47
2017-12-06T01:44:11.370Z,8.36
2017-12-06T01:45:11.366Z,8.41
2017-12-06T01:46:11.388Z,8.41
2017-12-06T01:47:11.391Z,8.41
2017-12-06T01:48:11.420Z,8.33
2017-12-06T01:49:11.438Z,8.44
2017-12-06T01:51:11.477Z,8.4
2017-12-06T01:52:11.475Z,8.38
2017-12-06T01:53:11.504Z,8.4
2017-12-06T01:54:11.528Z,8.45
2017-12-06T01:55:11.531Z,8.37
2017-12-06T01:56:11.556Z,8.4
2017-12-06T01:57:26.234Z,8.37
2017-12-06T01:58:26.268Z,8.38
2017-12-06T01:59:11.587Z,8.41
2017-12-06T02:00:11.613Z,8.44
2017-12-06T02:01:11.644Z,8.38
2017-12-06T02:03:11.736Z,8.41
2017-12-06T02:04:11.727Z,8.4
2017-12-06T02:05:26.374Z,8.41
2017-12-06T02:06:11.814Z,8.41
2017-12-06T02:07:11.756Z,8.48
2017-12-06T02:08:11.788Z,8.56
2017-12-06T02:09:11.806Z,8.56
2017-12-06T02:10:11.797Z,8.58
2017-12-06T02:11:11.554Z,8.43
2017-12-06T02:12:26.495Z,8.52
2017-12-06T02:14:11.621Z,8.48
2017-12-06T02:15:11.899Z,8.38
2017-12-06T02:16:11.649Z,8.38
2017-12-06T02:17:11.911Z,8.4
2017-12-06T02:18:11.942Z,8.43
2017-12-06T02:19:11.976Z,8.43
2017-12-06T02:20:12.075Z,8.47
2017-12-06T02:21:11.999Z,8.45
2017-12-06T02:22:12.032Z,8.45
2017-12-06T02:24:12.057Z,8.38
2017-12-06T02:25:26.745Z,8.37
2017-12-06T02:26:12.082Z,8.38
2017-12-06T02:27:12.110Z,8.4
2017-12-06T02:28:26.785Z,8.37
2017-12-06T02:29:12.148Z,8.34
2017-12-06T02:30:26.843Z,8.43
2017-12-06T02:31:12.167Z,8.36
2017-12-06T02:32:11.954Z,8.33
2017-12-06T02:33:12.233Z,8.4
2017-12-06T02:34:12.252Z,8.23
2017-12-06T02:35:12.257Z,8.22
2017-12-06T02:36:12.263Z,8.23
2017-12-06T02:37:12.272Z,8.25
2017-12-06T02:38:26.973Z,8.29
2017-12-06T02:39:12.343Z,8.26
2017-12-06T02:40:12.330Z,8.26
2017-12-06T02:41:12.385Z,8.29
2017-12-06T02:42:27.049Z,8.26
2017-12-06T02:43:12.417Z,8.25
2017-12-06T02:45:12.425Z,8.2
2017-12-06T02:46:27.110Z,8.25
2017-12-06T02:47:12.475Z,8.2
2017-12-06T02:48:12.461Z,8.33
2017-12-06T02:49:12.512Z,8.36
2017-12-06T02:50:12.518Z,8.36
2017-12-06T02:51:27.192Z,8.33
2017-12-06T02:52:12.567Z,8.38
2017-12-06T02:54:12.577Z,8.33
2017-12-06T02:55:12.599Z,8.36
2017-12-06T02:56:12.606Z,8.34
2017-12-06T02:57:27.305Z,8.33
2017-12-06T02:58:12.675Z,8.29
2017-12-06T02:59:12.678Z,8.34
2017-12-06T03:00:12.710Z,8.34
2017-12-06T03:01:12.726Z,8.23
2017-12-06T03:02:27.132Z,8.23
2017-12-06T03:03:12.718Z,8.2
2017-12-06T03:04:12.761Z,8.23
2017-12-06T03:05:12.770Z,8.29
2017-12-06T03:06:12.558Z,8.29
2017-12-06T03:07:12.558Z,8.26
2017-12-06T03:08:12.815Z,8.22
2017-12-06T03:09:12.850Z,8.33
2017-12-06T03:10:12.883Z,8.22
2017-12-06T03:11:12.888Z,8.23
2017-12-06T03:12:12.892Z,8.4
2017-12-06T03:13:12.661Z,8.22
2017-12-06T03:14:12.675Z,8.26
2017-12-06T03:15:12.950Z,8.29
2017-12-06T03:16:12.707Z,8.19
2017-12-06T03:18:27.660Z,8.26
2017-12-06T03:19:13.015Z,8.29
2017-12-06T03:20:13.062Z,8.2
2017-12-06T03:21:12.796Z,8.29
2017-12-06T03:22:13.080Z,8.29
2017-12-06T03:23:27.767Z,8.29
2017-12-06T03:24:13.086Z,8.26
2017-12-06T03:25:13.151Z,8.29
2017-12-06T03:27:13.177Z,8.25
2017-12-06T03:28:13.186Z,8.29
2017-12-06T03:29:13.236Z,8.33
2017-12-06T03:30:13.230Z,8.25
2017-12-06T03:31:13.376Z,8.26
2017-12-06T03:32:13.242Z,8.25
2017-12-06T03:33:27.928Z,8.3
2017-12-06T03:34:13.301Z,8.3
2017-12-06T03:35:13.310Z,8.29
2017-12-06T03:36:13.309Z,8.3
2017-12-06T03:37:13.325Z,8.29
2017-12-06T03:38:13.167Z,8.26
2017-12-06T03:39:13.131Z,8.4
2017-12-06T03:40:13.409Z,8.33
2017-12-06T03:41:13.149Z,8.2
2017-12-06T03:42:13.176Z,8.25
2017-12-06T03:43:27.862Z,8.26
2017-12-06T03:44:13.205Z,8.37
2017-12-06T03:45:13.241Z,8.29
2017-12-06T03:46:13.507Z,8.26
2017-12-06T03:47:13.506Z,8.25
2017-12-06T03:48:13.538Z,8.26
2017-12-06T03:49:13.531Z,8.29
2017-12-06T03:50:13.598Z,8.3
2017-12-06T03:51:13.350Z,8.26
2017-12-06T03:52:13.583Z,8.29
2017-12-06T03:55:13.641Z,8.28
2017-12-06T03:56:13.655Z,8.25
2017-12-06T03:58:13.439Z,8.25
2017-12-06T03:59:13.721Z,8.25
2017-12-06T04:00:13.772Z,8.25
2017-12-06T04:01:28.442Z,8.23
2017-12-06T04:02:13.821Z,8.18
2017-12-06T04:03:13.921Z,8.23
2017-12-06T04:05:28.546Z,8.26
2017-12-06T04:06:13.838Z,8.26
2017-12-06T04:07:13.852Z,8.29
2017-12-06T04:08:13.889Z,8.25
2017-12-06T04:09:13.927Z,8.26
2017-12-06T04:10:13.923Z,8.28
2017-12-06T04:11:28.602Z,8.19
2017-12-06T04:12:13.940Z,8.23
2017-12-06T04:13:13.999Z,8.2
2017-12-06T04:14:13.976Z,8.22
2017-12-06T04:15:14.004Z,8.23
2017-12-06T04:16:14.061Z,8.25
2017-12-06T04:17:14.046Z,8.29
2017-12-06T04:18:14.081Z,8.26
2017-12-06T04:19:14.093Z,8.23
2017-12-06T04:20:14.074Z,8.2
2017-12-06T04:21:28.779Z,8.19
2017-12-06T04:22:14.132Z,8.15
2017-12-06T04:23:14.134Z,8.26
2017-12-06T04:24:14.154Z,8.26
2017-12-06T04:26:14.202Z,8.33
2017-12-06T04:27:14.214Z,8.29
2017-12-06T04:28:14.245Z,8.29
2017-12-06T04:29:14.254Z,8.26
2017-12-06T04:30:14.251Z,8.22
2017-12-06T04:31:14.291Z,8.18
2017-12-06T04:32:14.050Z,8.26
2017-12-06T04:33:14.323Z,8.29
2017-12-06T04:35:14.376Z,8.25
2017-12-06T04:37:29.079Z,8.36
2017-12-06T04:38:14.181Z,8.34
2017-12-06T04:39:14.426Z,8.33
2017-12-06T04:40:14.449Z,8.18
2017-12-06T04:41:14.466Z,8.29
2017-12-06T04:42:14.484Z,8.26
2017-12-06T04:43:14.527Z,8.28
2017-12-06T04:44:29.179Z,8.19
2017-12-06T04:45:29.214Z,8.25
2017-12-06T04:46:14.570Z,8.29
2017-12-06T04:47:14.317Z,8.26
2017-12-06T04:49:14.377Z,8.12
2017-12-06T04:50:14.365Z,8.26
2017-12-06T04:51:14.660Z,8.23
2017-12-06T04:52:29.311Z,8.18
2017-12-06T04:53:29.358Z,8.23
2017-12-06T04:54:14.673Z,8.22
2017-12-06T04:55:14.710Z,8.22
2017-12-06T04:56:14.459Z,8.18
2017-12-06T04:57:14.729Z,8.12
2017-12-06T04:58:14.755Z,8.18
2017-12-06T04:59:14.804Z,8.05
2017-12-06T05:00:14.530Z,8.15
2017-12-06T05:01:14.799Z,8.15
2017-12-06T05:02:14.826Z,8.25
2017-12-06T05:03:14.859Z,8.15
2017-12-06T05:04:29.537Z,8.16
2017-12-06T05:05:14.642Z,8.12
2017-12-06T05:06:14.905Z,8.18
2017-12-06T05:07:14.925Z,8.11
2017-12-06T05:08:29.623Z,8.1
2017-12-06T05:09:14.976Z,8.15
2017-12-06T05:10:14.969Z,8.07
2017-12-06T05:11:14.754Z,8.08
2017-12-06T05:12:14.771Z,8.07
2017-12-06T05:13:14.514Z,8.12
2017-12-06T05:14:15.048Z,8.15
2017-12-06T05:15:15.063Z,8.12
2017-12-06T05:16:14.830Z,8.18
2017-12-06T05:17:15.080Z,8.11
2017-12-06T05:19:15.130Z,8.22
2017-12-06T05:20:15.171Z,8.2
2017-12-06T05:21:15.236Z,8.08
2017-12-06T05:22:15.184Z,8.23
2017-12-06T05:24:15.208Z,8.28
2017-12-06T05:25:15.240Z,8.23
2017-12-06T05:26:15.264Z,8.22
2017-12-06T05:27:15.265Z,8.23
2017-12-06T05:28:15.310Z,8.25
2017-12-06T05:29:15.313Z,8.3
2017-12-06T05:30:15.354Z,8.2
2017-12-06T05:31:15.338Z,8.23
2017-12-06T05:32:15.362Z,8.2
2017-12-06T05:33:15.416Z,8.26
2017-12-06T05:34:15.411Z,8.18
2017-12-06T05:35:30.078Z,8.25
2017-12-06T05:36:15.551Z,8.37
2017-12-06T05:37:15.476Z,8.26
2017-12-06T05:38:15.484Z,8.26
2017-12-06T05:39:15.208Z,8.22
2017-12-06T05:40:30.179Z,8.43
2017-12-06T05:41:15.521Z,8.4
2017-12-06T05:42:15.536Z,8.38
2017-12-06T05:43:15.537Z,8.34
2017-12-06T05:44:15.573Z,8.38
2017-12-06T05:45:15.569Z,8.34
2017-12-06T05:46:15.380Z,8.36
2017-12-06T05:47:15.623Z,8.3
2017-12-06T05:48:15.655Z,8.26
2017-12-06T05:49:15.404Z,8.29
2017-12-06T05:50:15.694Z,8.26
2017-12-06T05:51:15.695Z,8.25
2017-12-06T05:52:15.725Z,8.25
2017-12-06T05:53:15.716Z,8.26
2017-12-06T05:54:30.436Z,8.26
2017-12-06T05:55:15.761Z,8.29
2017-12-06T05:56:30.458Z,8.33
2017-12-06T05:58:15.825Z,8.29
2017-12-06T05:59:15.817Z,8.25
2017-12-06T06:00:15.859Z,8.29
2017-12-06T06:01:15.856Z,8.34
2017-12-06T06:02:15.896Z,8.3
2017-12-06T06:03:15.924Z,8.28
2017-12-06T06:04:15.978Z,8.22
2017-12-06T06:05:15.920Z,8.25
2017-12-06T06:06:15.712Z,8.25
2017-12-06T06:08:30.669Z,8.29
2017-12-06T06:09:30.745Z,8.26
2017-12-06T06:10:16.029Z,8.18
2017-12-06T06:11:15.796Z,8.25
2017-12-06T06:12:30.745Z,8.28
2017-12-06T06:14:15.847Z,8.22
2017-12-06T06:15:16.125Z,8.29
2017-12-06T06:16:16.168Z,8.25
2017-12-06T06:17:15.896Z,8.28
2017-12-06T06:18:16.168Z,8.29
2017-12-06T06:19:16.191Z,8.26
2017-12-06T06:20:16.235Z,8.2
2017-12-06T06:21:16.228Z,8.2
2017-12-06T06:22:16.242Z,8.16
2017-12-06T06:24:16.259Z,8.23
2017-12-06T06:25:16.287Z,8.22
2017-12-06T06:26:16.072Z,8.23
2017-12-06T06:27:16.336Z,8.25
2017-12-06T06:28:31.027Z,8.36
2017-12-06T06:29:16.367Z,8.37
2017-12-06T06:30:16.387Z,8.34
2017-12-06T06:31:16.122Z,8.37
2017-12-06T06:32:16.425Z,8.3
2017-12-06T06:33:16.441Z,8.22
2017-12-06T06:34:16.428Z,8.29
2017-12-06T06:35:16.474Z,8.26
2017-12-06T06:36:16.489Z,8.23
2017-12-06T06:37:16.253Z,8.25
2017-12-06T06:38:31.192Z,8.38
2017-12-06T06:40:16.569Z,8.34
2017-12-06T06:41:16.307Z,8.38
2017-12-06T06:42:16.355Z,8.2
2017-12-06T06:43:31.256Z,8.38
2017-12-06T06:44:16.611Z,8.33
2017-12-06T06:45:16.663Z,8.26
2017-12-06T06:46:31.348Z,8.34
2017-12-06T06:47:16.659Z,8.34
2017-12-06T06:48:16.679Z,8.25
2017-12-06T06:49:16.714Z,8.2
2017-12-06T06:50:16.740Z,8.33
2017-12-06T06:51:16.769Z,8.38
2017-12-06T06:52:16.780Z,8.33
2017-12-06T06:53:16.795Z,8.33
2017-12-06T06:54:16.565Z,8.28
2017-12-06T06:55:16.841Z,8.37
2017-12-06T06:56:16.834Z,8.36
2017-12-06T06:57:16.854Z,8.33
2017-12-06T06:58:16.601Z,8.36
2017-12-06T06:59:16.896Z,8.3
2017-12-06T07:00:16.914Z,8.29
2017-12-06T07:01:16.673Z,8.23
2017-12-06T07:02:16.963Z,8.29
2017-12-06T07:03:16.736Z,8.34
2017-12-06T07:04:16.983Z,8.2
2017-12-06T07:05:16.741Z,8.22
2017-12-06T07:07:17.016Z,8.22
2017-12-06T07:08:16.779Z,8.19
2017-12-06T07:09:17.071Z,8.33
2017-12-06T07:10:16.816Z,8.3
2017-12-06T07:11:17.094Z,8.23
2017-12-06T07:12:16.879Z,8.3
2017-12-06T07:13:17.116Z,8.26
2017-12-06T07:14:31.804Z,8.29
2017-12-06T07:15:31.835Z,8.23
2017-12-06T07:16:17.191Z,8.34
2017-12-06T07:17:17.199Z,8.28
2017-12-06T07:18:17.233Z,8.23
2017-12-06T07:19:17.261Z,8.23
2017-12-06T07:20:17.267Z,8.3
2017-12-06T07:21:17.295Z,8.34
2017-12-06T07:22:17.280Z,8.36
2017-12-06T07:23:17.337Z,8.25
2017-12-06T07:24:17.327Z,8.26
2017-12-06T07:25:17.369Z,8.33
2017-12-06T07:26:17.366Z,8.28
2017-12-06T07:27:17.383Z,8.3
2017-12-06T07:28:17.152Z,8.23
2017-12-06T07:29:17.161Z,8.33
2017-12-06T07:30:17.405Z,8.38
2017-12-06T07:31:32.105Z,8.28
2017-12-06T07:32:17.480Z,8.2
2017-12-06T07:33:17.475Z,8.26
2017-12-06T07:34:17.520Z,8.23
2017-12-06T07:35:32.178Z,8.22
2017-12-06T07:36:17.566Z,8.2
2017-12-06T07:37:17.536Z,8.33
2017-12-06T07:38:17.339Z,8.23
2017-12-06T07:39:17.586Z,8.33
2017-12-06T07:40:17.608Z,8.23
2017-12-06T07:41:17.639Z,8.26
2017-12-06T07:42:17.636Z,8.19
2017-12-06T07:43:17.660Z,8.38
2017-12-06T07:44:17.684Z,8.22
2017-12-06T07:45:32.344Z,8.23
2017-12-06T07:46:17.699Z,8.25
2017-12-06T07:47:32.385Z,8.34
2017-12-06T07:48:17.733Z,8.29
2017-12-06T07:49:17.750Z,8.26
2017-12-06T07:50:17.793Z,8.22
2017-12-06T07:51:17.816Z,8.23
2017-12-06T07:52:17.846Z,8.23
2017-12-06T07:53:17.844Z,8.2
2017-12-06T07:54:17.854Z,8.38
2017-12-06T07:55:17.872Z,8.23
2017-12-06T07:56:17.904Z,8.33
2017-12-06T07:57:17.904Z,8.36
2017-12-06T07:59:17.674Z,8.34
2017-12-06T08:00:17.733Z,8.43
2017-12-06T08:01:17.985Z,8.41
2017-12-06T08:02:17.987Z,8.4
2017-12-06T08:03:32.668Z,8.29
2017-12-06T08:06:18.088Z,8.37
2017-12-06T08:07:18.102Z,8.33
2017-12-06T08:08:18.102Z,8.34
2017-12-06T08:09:32.783Z,8.23
2017-12-06T08:10:18.151Z,8.38
2017-12-06T08:11:18.172Z,8.37
2017-12-06T08:12:18.157Z,8.44
2017-12-06T08:13:18.168Z,8.29
2017-12-06T08:15:18.204Z,8.43
2017-12-06T08:16:18.241Z,8.45
2017-12-06T08:17:18.255Z,8.45
2017-12-06T08:18:32.949Z,8.45
2017-12-06T08:19:18.341Z,8.28
2017-12-06T08:20:18.311Z,8.38
2017-12-06T08:21:18.065Z,8.3
2017-12-06T08:22:18.352Z,8.43
2017-12-06T08:23:18.437Z,8.43
2017-12-06T08:24:18.373Z,8.4
2017-12-06T08:25:18.422Z,8.4
2017-12-06T08:26:18.480Z,8.4
2017-12-06T08:27:18.448Z,8.48
2017-12-06T08:28:18.466Z,8.44
2017-12-06T08:29:18.448Z,8.44
2017-12-06T08:30:18.534Z,8.38
2017-12-06T08:31:18.519Z,8.4
2017-12-06T08:32:33.175Z,8.43
2017-12-06T08:33:18.028Z,8.44
2017-12-06T08:34:18.553Z,8.4
2017-12-06T08:35:18.562Z,8.47
2017-12-06T08:37:18.613Z,8.56
2017-12-06T08:38:33.308Z,8.43
2017-12-06T08:39:18.626Z,8.41
2017-12-06T08:40:18.680Z,8.4
2017-12-06T08:41:18.693Z,8.4
2017-12-06T08:42:18.708Z,8.41
2017-12-06T08:43:18.714Z,8.38
2017-12-06T08:44:18.758Z,8.41
2017-12-06T08:45:33.424Z,8.44
2017-12-06T08:46:18.755Z,8.44
2017-12-06T08:47:18.546Z,8.43
2017-12-06T08:49:18.848Z,8.38
2017-12-06T08:50:33.514Z,8.43
2017-12-06T08:51:18.876Z,8.43
2017-12-06T08:52:18.856Z,8.41
2017-12-06T08:53:33.576Z,8.43
2017-12-06T08:54:18.888Z,8.36
2017-12-06T08:55:18.929Z,8.36
2017-12-06T08:56:18.971Z,8.37
2017-12-06T08:57:33.360Z,8.53
2017-12-06T08:58:18.992Z,8.26
2017-12-06T08:59:18.994Z,8.37
2017-12-06T09:00:19.019Z,8.37
2017-12-06T09:01:19.038Z,8.37
2017-12-06T09:02:19.067Z,8.43
2017-12-06T09:03:19.074Z,8.36
2017-12-06T09:04:19.081Z,8.43
2017-12-06T09:05:19.086Z,8.4
2017-12-06T09:06:33.782Z,8.4
2017-12-06T09:07:19.131Z,8.43
2017-12-06T09:08:19.138Z,8.33
2017-12-06T09:09:18.936Z,8.37
2017-12-06T09:10:19.199Z,8.43
2017-12-06T09:11:19.198Z,8.4
2017-12-06T09:12:19.215Z,8.47
2017-12-06T09:13:33.897Z,8.41
2017-12-06T09:14:19.279Z,8.4
2017-12-06T09:16:18.792Z,8.47
2017-12-06T09:17:19.339Z,8.48
2017-12-06T09:18:19.332Z,8.38
2017-12-06T09:19:19.359Z,8.38
2017-12-06T09:20:19.370Z,8.58
2017-12-06T09:21:19.109Z,8.53
2017-12-06T09:22:33.818Z,8.37
2017-12-06T09:23:19.170Z,8.43
2017-12-06T09:25:19.190Z,8.47
2017-12-06T09:27:19.492Z,8.43
2017-12-06T09:28:19.504Z,8.47
2017-12-06T09:29:19.274Z,8.44
2017-12-06T09:30:19.557Z,8.44
2017-12-06T09:31:19.576Z,8.44
2017-12-06T09:32:19.792Z,8.43
2017-12-06T09:33:19.606Z,8.44
2017-12-06T09:34:19.620Z,8.43
2017-12-06T09:35:19.633Z,8.38
2017-12-06T09:36:19.661Z,8.4
2017-12-06T09:38:34.369Z,8.38
2017-12-06T09:39:19.718Z,8.43
2017-12-06T09:40:19.753Z,8.38
2017-12-06T09:41:19.491Z,8.38
2017-12-06T09:42:19.767Z,8.38
2017-12-06T09:43:19.522Z,8.4
2017-12-06T09:44:34.479Z,8.4
2017-12-06T09:45:19.821Z,8.45
2017-12-06T09:46:19.810Z,8.34
2017-12-06T09:47:19.603Z,8.37
2017-12-06T09:48:19.876Z,8.38
2017-12-06T09:49:19.924Z,8.36
2017-12-06T09:50:19.648Z,8.29
2017-12-06T09:51:19.910Z,8.33
2017-12-06T09:52:19.909Z,8.29
2017-12-06T09:53:34.620Z,8.19
2017-12-06T09:54:19.979Z,8.2
2017-12-06T09:55:19.987Z,8.26
2017-12-06T09:56:20.012Z,8.22
2017-12-06T09:57:20.107Z,8.26
2017-12-06T09:58:20.032Z,8.23
2017-12-06T09:59:20.055Z,8.37
2017-12-06T10:00:20.068Z,8.2
2017-12-06T10:01:20.088Z,8.36
2017-12-06T10:02:20.103Z,8.3
2017-12-06T10:03:20.167Z,8.28
2017-12-06T10:04:19.882Z,8.3
2017-12-06T10:05:20.194Z,8.37
2017-12-06T10:06:19.927Z,8.44
2017-12-06T10:07:19.946Z,8.43
2017-12-06T10:08:20.192Z,8.38
2017-12-06T10:09:20.244Z,8.37
2017-12-06T10:10:20.271Z,8.37
2017-12-06T10:11:20.265Z,8.45
2017-12-06T10:12:20.291Z,8.48
2017-12-06T10:14:20.298Z,8.4
2017-12-06T10:15:20.083Z,8.38
2017-12-06T10:16:20.092Z,8.52
2017-12-06T10:17:20.371Z,8.41
2017-12-06T10:18:20.405Z,8.43
2017-12-06T10:19:20.165Z,8.43
2017-12-06T10:20:20.176Z,8.4
2017-12-06T10:21:20.187Z,8.45
2017-12-06T10:22:20.189Z,8.33
2017-12-06T10:23:20.217Z,8.4
2017-12-06T10:24:20.489Z,8.45
2017-12-06T10:25:35.174Z,8.43
2017-12-06T10:26:20.272Z,8.47
2017-12-06T10:27:20.570Z,8.48
2017-12-06T10:28:20.567Z,8.43
2017-12-06T10:29:20.306Z,8.44
2017-12-06T10:30:20.333Z,8.47
2017-12-06T10:31:20.633Z,8.5
2017-12-06T10:32:20.643Z,8.47
2017-12-06T10:33:20.688Z,8.43
2017-12-06T10:34:20.441Z,8.44
2017-12-06T10:35:20.691Z,8.52
2017-12-06T10:36:35.382Z,8.43
2017-12-06T10:37:20.728Z,8.47
2017-12-06T10:38:20.472Z,8.56
2017-12-06T10:39:20.778Z,8.44
2017-12-06T10:40:20.767Z,8.48
2017-12-06T10:41:35.458Z,8.48
2017-12-06T10:42:20.831Z,8.47
2017-12-06T10:43:20.808Z,8.55
2017-12-06T10:44:20.845Z,8.56
2017-12-06T10:45:20.848Z,8.48
2017-12-06T10:46:20.902Z,8.52
2017-12-06T10:47:20.639Z,8.52
2017-12-06T10:48:20.685Z,8.52
2017-12-06T10:49:20.678Z,8.56
2017-12-06T10:51:20.979Z,8.59
2017-12-06T10:52:20.732Z,8.52
2017-12-06T10:54:21.003Z,8.48
2017-12-06T10:55:21.040Z,8.53
2017-12-06T10:56:21.044Z,8.59
2017-12-06T10:57:35.752Z,8.55
2017-12-06T10:58:21.106Z,8.5
2017-12-06T10:59:20.844Z,8.53
2017-12-06T11:00:21.148Z,8.48
2017-12-06T11:01:35.820Z,8.48
2017-12-06T11:02:21.234Z,8.52
2017-12-06T11:03:21.207Z,8.55
2017-12-06T11:04:21.207Z,8.5
2017-12-06T11:05:20.956Z,8.55
2017-12-06T11:06:21.235Z,8.48
2017-12-06T11:07:21.273Z,8.52
2017-12-06T11:08:21.258Z,8.55
2017-12-06T11:10:21.324Z,8.56
2017-12-06T11:11:21.062Z,8.55
2017-12-06T11:12:21.336Z,8.65
2017-12-06T11:13:36.053Z,8.62
2017-12-06T11:14:21.384Z,8.71
2017-12-06T11:15:21.406Z,8.62
2017-12-06T11:16:21.434Z,8.65
2017-12-06T11:17:21.172Z,8.66
2017-12-06T11:18:21.441Z,8.61
2017-12-06T11:19:21.447Z,8.65
2017-12-06T11:20:36.159Z,8.59
2017-12-06T11:21:21.500Z,8.73
2017-12-06T11:22:21.521Z,8.71
2017-12-06T11:23:21.524Z,8.68
2017-12-06T11:24:21.283Z,8.65
2017-12-06T11:25:21.567Z,8.76
2017-12-06T11:26:36.246Z,8.77
2017-12-06T11:27:21.370Z,8.7
2017-12-06T11:28:36.304Z,8.71
2017-12-06T11:29:21.660Z,8.7
2017-12-06T11:30:36.343Z,8.7
2017-12-06T11:31:21.404Z,8.76
2017-12-06T11:32:21.682Z,8.74
2017-12-06T11:33:21.441Z,8.66
2017-12-06T11:34:36.500Z,8.61
2017-12-06T11:35:21.770Z,8.63
2017-12-06T11:36:21.758Z,8.62
2017-12-06T11:37:21.777Z,8.7
2017-12-06T11:38:21.829Z,8.74
2017-12-06T11:39:21.832Z,8.66
2017-12-06T11:41:21.859Z,8.71
2017-12-06T11:42:21.849Z,8.7
2017-12-06T11:43:21.898Z,8.66
2017-12-06T11:44:21.923Z,8.61
2017-12-06T11:45:21.945Z,8.61
2017-12-06T11:46:36.353Z,8.65
2017-12-06T11:47:21.976Z,8.65
2017-12-06T11:48:21.707Z,8.61
2017-12-06T11:49:36.665Z,8.62
2017-12-06T11:50:22.027Z,8.63
2017-12-06T11:51:21.795Z,8.71
2017-12-06T11:52:22.060Z,8.62
2017-12-06T11:53:21.803Z,8.65
2017-12-06T11:54:22.081Z,8.59
2017-12-06T11:55:22.126Z,8.63
2017-12-06T11:56:21.899Z,8.71
2017-12-06T11:57:21.900Z,8.66
2017-12-06T11:59:22.201Z,8.74
2017-12-06T12:00:36.852Z,8.68
2017-12-06T12:01:22.230Z,8.58
2017-12-06T12:02:22.258Z,8.59
2017-12-06T12:03:22.259Z,8.63
2017-12-06T12:04:22.278Z,8.61
2017-12-06T12:05:22.300Z,8.66
2017-12-06T12:06:22.044Z,8.68
2017-12-06T12:07:22.305Z,8.66
2017-12-06T12:08:22.356Z,8.58
2017-12-06T12:09:22.352Z,8.66
2017-12-06T12:10:22.140Z,8.7
2017-12-06T12:12:22.169Z,8.77
2017-12-06T12:13:22.458Z,8.77
2017-12-06T12:15:22.189Z,8.71
2017-12-06T12:16:37.138Z,8.73
2017-12-06T12:17:22.258Z,8.7
2017-12-06T12:18:22.492Z,8.71
2017-12-06T12:19:22.290Z,8.65
2017-12-06T12:20:22.552Z,8.68
2017-12-06T12:21:22.566Z,8.71
2017-12-06T12:22:22.597Z,8.73
2017-12-06T12:23:22.605Z,8.71
2017-12-06T12:24:22.615Z,8.73
2017-12-06T12:25:22.623Z,8.74
2017-12-06T12:26:22.634Z,8.58
2017-12-06T12:27:22.687Z,8.73
2017-12-06T12:28:22.695Z,8.66
2017-12-06T12:29:22.734Z,8.68
2017-12-06T12:30:37.382Z,8.71
2017-12-06T12:31:22.770Z,8.74
2017-12-06T12:32:37.442Z,8.76
2017-12-06T12:34:22.802Z,8.68
2017-12-06T12:35:22.822Z,8.65
2017-12-06T12:36:22.837Z,8.71
2017-12-06T12:37:22.847Z,8.76
2017-12-06T12:38:22.898Z,8.7
2017-12-06T12:39:22.897Z,8.73
2017-12-06T12:40:37.568Z,8.7
2017-12-06T12:41:22.921Z,8.71
2017-12-06T12:42:22.956Z,8.74
2017-12-06T12:43:37.637Z,8.71
2017-12-06T12:44:22.994Z,8.68
2017-12-06T12:45:22.997Z,8.62
2017-12-06T12:46:23.007Z,8.62
2017-12-06T12:47:23.038Z,8.71
2017-12-06T12:48:37.712Z,8.68
2017-12-06T12:49:23.049Z,8.65
2017-12-06T12:51:23.079Z,8.66
2017-12-06T12:52:23.126Z,8.76
2017-12-06T12:53:23.153Z,8.66
2017-12-06T12:54:23.165Z,8.61
2017-12-06T12:55:23.188Z,8.77
2017-12-06T12:56:37.871Z,8.76
2017-12-06T12:57:23.187Z,8.74
2017-12-06T12:58:23.231Z,8.71
2017-12-06T13:00:23.283Z,8.73
2017-12-06T13:01:23.029Z,8.71
2017-12-06T13:03:37.989Z,8.7
2017-12-06T13:04:23.320Z,8.71
2017-12-06T13:05:23.112Z,8.74
2017-12-06T13:06:23.119Z,8.73
2017-12-06T13:07:23.401Z,8.71
2017-12-06T13:08:23.383Z,8.73
2017-12-06T13:09:23.478Z,8.62
2017-12-06T13:10:37.847Z,8.81
2017-12-06T13:11:23.189Z,8.73
2017-12-06T13:12:23.474Z,8.63
2017-12-06T13:13:23.493Z,8.79
2017-12-06T13:14:23.513Z,8.71
2017-12-06T13:15:23.542Z,8.62
2017-12-06T13:16:23.527Z,8.76
2017-12-06T13:17:23.618Z,8.74
2017-12-06T13:18:23.603Z,8.83
2017-12-06T13:19:23.337Z,8.86
2017-12-06T13:20:23.642Z,8.79
2017-12-06T13:21:38.320Z,8.81
2017-12-06T13:22:23.674Z,8.81
2017-12-06T13:23:23.674Z,8.83
2017-12-06T13:24:23.449Z,8.86
2017-12-06T13:25:38.464Z,8.92
2017-12-06T13:26:23.719Z,8.83
2017-12-06T13:27:23.738Z,8.86
2017-12-06T13:28:23.764Z,8.87
2017-12-06T13:29:23.806Z,8.83
2017-12-06T13:30:23.805Z,8.84
2017-12-06T13:31:23.801Z,8.77
2017-12-06T13:32:23.832Z,8.83
2017-12-06T13:33:38.524Z,8.98
2017-12-06T13:34:23.871Z,8.94
2017-12-06T13:35:38.556Z,8.92
2017-12-06T13:36:23.934Z,8.99
2017-12-06T13:37:38.332Z,8.81
2017-12-06T13:38:23.953Z,8.76
2017-12-06T13:39:23.957Z,8.79
2017-12-06T13:40:23.984Z,8.79
2017-12-06T13:41:24.013Z,8.77
2017-12-06T13:42:23.776Z,8.76
2017-12-06T13:43:24.052Z,8.79
2017-12-06T13:44:24.052Z,8.8
2017-12-06T13:45:23.819Z,8.79
2017-12-06T13:46:38.759Z,8.86
2017-12-06T13:47:24.102Z,8.87
2017-12-06T13:48:24.121Z,8.86
2017-12-06T13:49:38.794Z,8.77
2017-12-06T13:50:24.142Z,8.79
2017-12-06T13:52:24.177Z,8.77
2017-12-06T13:54:23.978Z,8.76
2017-12-06T13:55:24.233Z,8.63
2017-12-06T13:56:24.263Z,8.74
2017-12-06T13:57:38.940Z,8.74
2017-12-06T13:58:24.049Z,8.77
2017-12-06T13:59:24.298Z,8.77
2017-12-06T14:00:24.328Z,8.8
2017-12-06T14:01:24.355Z,8.79
2017-12-06T14:02:24.123Z,8.79
2017-12-06T14:03:38.808Z,8.81
2017-12-06T14:04:24.420Z,8.79
2017-12-06T14:05:39.108Z,8.74
2017-12-06T14:06:24.436Z,8.73
2017-12-06T14:07:39.131Z,8.79
2017-12-06T14:08:24.487Z,8.79
2017-12-06T14:09:24.509Z,8.73
2017-12-06T14:10:24.523Z,8.73
2017-12-06T14:12:24.526Z,8.79
2017-12-06T14:13:24.577Z,8.86
2017-12-06T14:14:24.595Z,8.76
2017-12-06T14:15:24.602Z,8.71
2017-12-06T14:16:24.621Z,8.73
2017-12-06T14:17:25.119Z,8.79